createdAt,value
2019-06-07T00:04:01.505Z,97922.08
2019-06-07T00:08:09.699Z,97927.89
2019-06-07T00:12:14.899Z,97921.91
2019-06-07T00:16:23.046Z,97919.28
2019-06-07T00:20:26.312Z,97917.91
2019-06-07T00:24:31.173Z,97924.55
2019-06-07T00:28:36.083Z,97918.52
2019-06-07T00:32:40.979Z,97918.61
2019-06-07T00:36:45.878Z,97927.73
2019-06-07T00:40:50.776Z,97926.34
2019-06-07T00:44:55.666Z,97915.99
2019-06-07T00:49:00.606Z,97918.13
2019-06-07T00:53:15.455Z,97907.97
2019-06-07T00:57:12.519Z,97902.66
2019-06-07T01:01:22.212Z,97897.64
2019-06-07T01:05:31.036Z,97897.41
2019-06-07T01:09:31.912Z,97897.80
2019-06-07T01:13:36.815Z,97890.16
2019-06-07T01:18:11.968Z,97897.11
2019-06-07T01:21:48.317Z,97890.84
2019-06-07T01:25:53.209Z,97887.11
2019-06-07T01:29:58.109Z,97877.19
2019-06-07T01:34:04.147Z,97875.77
2019-06-07T01:38:09.044Z,97875.53
2019-06-07T01:42:13.949Z,97865.38
2019-06-07T01:46:20.604Z,97862.70
2019-06-07T01:50:27.146Z,97867.31
2019-06-07T01:58:38.809Z,97868.95
2019-06-07T02:02:44.679Z,97874.68
2019-06-07T02:06:49.586Z,97870.19
2019-06-07T02:10:54.474Z,97877.47
2019-06-07T02:14:59.373Z,97871.67
2019-06-07T02:19:04.448Z,97870.56
2019-06-07T02:23:09.337Z,97878.63
2019-06-07T02:27:14.231Z,97872.74
2019-06-07T02:31:19.136Z,97873.45
2019-06-07T02:35:30.939Z,97860.28
2019-06-07T02:39:36.816Z,97863.77
2019-06-07T02:43:37.492Z,97852.58
2019-06-07T02:47:45.110Z,97851.48
2019-06-07T02:51:50.005Z,97851.17
2019-06-07T02:56:34.927Z,97850.11
2019-06-07T03:00:25.829Z,97841.63
2019-06-07T03:04:09.535Z,97840.08
2019-06-07T03:08:16.269Z,97851.45
2019-06-07T03:12:22.508Z,97843.19
2019-06-07T03:16:36.781Z,97840.47
2019-06-07T03:20:39.861Z,97846.47
2019-06-07T03:24:45.608Z,97845.98
2019-06-07T03:28:50.501Z,97844.03
2019-06-07T03:32:56.372Z,97841.14
2019-06-07T03:37:01.265Z,97840.89
2019-06-07T03:41:06.168Z,97848.03
2019-06-07T03:45:11.133Z,97834.64
2019-06-07T03:49:16.023Z,97841.40
2019-06-07T03:53:20.919Z,97843.03
2019-06-07T03:57:28.582Z,97844.80
2019-06-07T04:01:34.739Z,97837.66
2019-06-07T04:05:42.941Z,97828.26
2019-06-07T04:09:45.597Z,97836.83
2019-06-07T04:13:50.494Z,97838.44
2019-06-07T04:18:01.924Z,97838.59
2019-06-07T04:22:02.024Z,97841.55
2019-06-07T04:26:06.886Z,97826.95
2019-06-07T04:30:12.226Z,97824.88
2019-06-07T04:34:17.123Z,97831.44
2019-06-07T04:38:23.162Z,97818.46
2019-06-07T04:42:34.415Z,97827.16
2019-06-07T04:46:42.714Z,97818.75
2019-06-07T04:50:48.301Z,97814.34
2019-06-07T04:54:53.137Z,97811.14
2019-06-07T04:58:58.037Z,97797.73
2019-06-07T05:03:04.071Z,97800.89
2019-06-07T05:07:09.039Z,97801.25
2019-06-07T05:11:13.931Z,97786.03
2019-06-07T05:15:18.898Z,97783.51
2019-06-07T05:19:23.802Z,97781.88
2019-06-07T05:24:03.466Z,97777.34
2019-06-07T05:27:36.450Z,97769.48
2019-06-07T05:31:45.336Z,97762.06
2019-06-07T05:35:49.619Z,97768.82
2019-06-07T05:39:54.624Z,97765.48
2019-06-07T05:44:12.126Z,97764.78
2019-06-07T05:48:07.884Z,97766.63
2019-06-07T05:52:12.800Z,97752.35
2019-06-07T05:56:17.971Z,97754.62
2019-06-07T06:00:22.997Z,97759.84
2019-06-07T06:04:28.918Z,97753.17
2019-06-07T06:08:36.671Z,97764.77
2019-06-07T06:12:45.170Z,97762.11
2019-06-07T06:16:49.728Z,97764.04
2019-06-07T06:21:16.025Z,97753.87
2019-06-07T06:25:31.008Z,97746.31
2019-06-07T06:29:06.924Z,97753.24
2019-06-07T06:33:30.797Z,97737.73
2019-06-07T06:37:18.416Z,97738.13
2019-06-07T06:41:24.287Z,97740.13
2019-06-07T06:45:29.203Z,97747.64
2019-06-07T06:49:34.145Z,97743.05
2019-06-07T06:53:40.405Z,97740.48
2019-06-07T06:57:45.956Z,97732.73
2019-06-07T07:01:52.664Z,97730.98
2019-06-07T07:06:24.190Z,97734.01
2019-06-07T07:10:08.034Z,97740.59
2019-06-07T07:14:13.146Z,97736.36
2019-06-07T07:18:18.046Z,97733.98
2019-06-07T07:22:22.955Z,97733.37
2019-06-07T07:26:27.860Z,97722.46
2019-06-07T07:30:55.250Z,97718.63
2019-06-07T07:35:00.662Z,97711.28
2019-06-07T07:39:07.138Z,97702.95
2019-06-07T07:43:12.181Z,97717.17
2019-06-07T07:47:17.091Z,97710.59
2019-06-07T07:51:22.035Z,97719.89
2019-06-07T07:55:26.988Z,97712.41
2019-06-07T07:59:41.713Z,97707.34
2019-06-07T08:03:38.967Z,97699.98
2019-06-07T08:07:43.897Z,97701.31
2019-06-07T08:11:49.977Z,97695.98
2019-06-07T08:15:59.249Z,97690.81
2019-06-07T08:20:02.826Z,97691.71
2019-06-07T08:24:08.196Z,97673.52
2019-06-07T08:28:13.097Z,97676.59
2019-06-07T08:32:17.999Z,97666.33
2019-06-07T08:36:40.747Z,97661.87
2019-06-07T08:40:30.625Z,97658.48
2019-06-07T08:44:35.531Z,97651.48
2019-06-07T08:48:40.430Z,97644.14
2019-06-07T08:52:45.339Z,97651.44
2019-06-07T08:56:53.685Z,97636.09
2019-06-07T09:01:03.661Z,97633.84
2019-06-07T09:05:11.712Z,97639.23
2019-06-07T09:09:11.138Z,97636.29
2019-06-07T09:13:16.038Z,97644.20
2019-06-07T09:17:20.944Z,97631.54
2019-06-07T09:21:25.833Z,97634.08
2019-06-07T09:25:30.803Z,97621.58
2019-06-07T09:29:36.839Z,97615.16
2019-06-07T09:33:41.743Z,97616.45
2019-06-07T09:41:53.233Z,97606.53
2019-06-07T09:46:00.486Z,97599.68
2019-06-07T09:50:11.420Z,97609.83
2019-06-07T09:55:02.292Z,97582.78
2019-06-07T10:02:26.010Z,97578.73
2019-06-07T10:06:30.895Z,97578.95
2019-06-07T10:10:35.804Z,97577.45
2019-06-07T10:14:44.132Z,97567.76
2019-06-07T10:18:47.316Z,97556.13
2019-06-07T10:22:52.236Z,97554.63
2019-06-07T10:26:57.116Z,97539.56
2019-06-07T10:31:02.135Z,97540.62
2019-06-07T10:35:08.202Z,97532.60
2019-06-07T10:39:14.035Z,97534.98
2019-06-07T10:43:18.934Z,97524.38
2019-06-07T10:47:23.829Z,97519.99
2019-06-07T10:51:28.729Z,97509.23
2019-06-07T10:55:33.640Z,97505.00
2019-06-07T10:59:38.542Z,97489.83
2019-06-07T11:03:43.516Z,97488.73
2019-06-07T11:07:48.436Z,97487.06
2019-06-07T11:11:53.333Z,97483.98
2019-06-07T11:15:58.232Z,97476.58
2019-06-07T11:20:06.057Z,97480.67
2019-06-07T11:24:12.285Z,97472.52
2019-06-07T11:28:18.662Z,97469.38
2019-06-07T11:32:24.391Z,97463.44
2019-06-07T11:36:29.308Z,97462.63
2019-06-07T11:40:35.977Z,97443.09
2019-06-07T11:44:55.687Z,97454.47
2019-06-07T11:48:47.533Z,97452.90
2019-06-07T11:52:53.505Z,97440.06
2019-06-07T11:56:58.406Z,97437.84
2019-06-07T12:01:03.314Z,97434.70
2019-06-07T12:05:10.414Z,97418.66
2019-06-07T12:09:16.834Z,97402.72
2019-06-07T12:13:21.942Z,97410.82
2019-06-07T12:17:26.909Z,97393.11
2019-06-07T12:21:31.818Z,97400.23
2019-06-07T12:25:36.725Z,97391.09
2019-06-07T12:29:41.611Z,97401.73
2019-06-07T12:33:46.515Z,97403.22
2019-06-07T12:37:51.428Z,97401.33
2019-06-07T12:41:56.325Z,97394.50
2019-06-07T12:46:01.241Z,97390.44
2019-06-07T12:50:07.853Z,97388.29
2019-06-07T12:54:13.334Z,97373.67
2019-06-07T12:58:27.192Z,97368.33
2019-06-07T13:02:25.617Z,97368.05
2019-06-07T13:06:30.553Z,97368.05
2019-06-07T13:10:35.470Z,97365.49
2019-06-07T13:14:40.391Z,97366.43
2019-06-07T13:18:45.258Z,97370.79
2019-06-07T13:22:50.165Z,97364.93
2019-06-07T13:26:55.073Z,97376.27
2019-06-07T13:30:59.957Z,97371.25
2019-06-07T13:35:06.600Z,97367.58
2019-06-07T13:39:11.498Z,97365.74
2019-06-07T13:43:17.269Z,97346.83
2019-06-07T13:47:23.107Z,97322.09
2019-06-07T13:51:29.128Z,97310.36
2019-06-07T13:55:33.993Z,97300.01
2019-06-07T13:59:38.897Z,97288.84
2019-06-07T14:03:43.794Z,97280.48
2019-06-07T14:07:48.697Z,97266.09
2019-06-07T14:11:53.596Z,97257.57
2019-06-07T14:15:58.492Z,97249.54
2019-06-07T14:20:05.115Z,97259.25
2019-06-07T14:24:09.978Z,97249.38
2019-06-07T14:28:14.887Z,97254.39
2019-06-07T14:32:19.786Z,97248.87
2019-06-07T14:36:24.861Z,97248.52
2019-06-07T14:40:30.141Z,97261.58
2019-06-07T14:44:35.125Z,97256.55
2019-06-07T14:48:40.016Z,97244.86
2019-06-07T14:52:44.923Z,97262.61
2019-06-07T14:56:49.835Z,97261.44
2019-06-07T15:00:54.755Z,97267.95
2019-06-07T15:04:59.833Z,97260.72
2019-06-07T15:09:07.953Z,97262.23
2019-06-07T15:13:12.913Z,97259.41
2019-06-07T15:17:17.823Z,97255.85
2019-06-07T15:21:22.729Z,97248.62
2019-06-07T15:25:29.074Z,97252.00
2019-06-07T15:29:34.119Z,97244.68
2019-06-07T15:33:39.009Z,97248.20
2019-06-07T15:37:43.914Z,97252.22
2019-06-07T15:41:48.820Z,97228.72
2019-06-07T15:45:53.730Z,97233.92
2019-06-07T15:49:58.629Z,97229.72
2019-06-07T15:54:03.618Z,97232.20
2019-06-07T15:58:08.882Z,97241.59
2019-06-07T16:02:13.858Z,97255.71
2019-06-07T16:06:19.722Z,97270.80
2019-06-07T16:10:24.739Z,97284.72
2019-06-07T16:14:29.638Z,97283.39
2019-06-07T16:18:35.230Z,97279.37
2019-06-07T16:22:40.181Z,97261.91
2019-06-07T16:26:45.104Z,97255.88
2019-06-07T16:30:50.180Z,97236.50
2019-06-07T16:34:55.076Z,97238.98
2019-06-07T16:38:59.980Z,97235.63
2019-06-07T16:43:16.986Z,97256.03
2019-06-07T16:47:13.105Z,97240.14
2019-06-07T16:51:17.987Z,97219.41
2019-06-07T16:55:22.975Z,97221.25
2019-06-07T16:59:27.851Z,97229.42
2019-06-07T17:03:32.767Z,97232.09
2019-06-07T17:07:38.311Z,97219.37
2019-06-07T17:11:44.322Z,97205.00
2019-06-07T17:15:49.185Z,97190.55
2019-06-07T17:19:54.088Z,97192.86
2019-06-07T17:23:58.984Z,97234.42
2019-06-07T17:28:03.953Z,97256.93
2019-06-07T17:32:08.863Z,97275.50
2019-06-07T17:36:13.788Z,97391.89
2019-06-07T17:40:18.789Z,97459.33
2019-06-07T17:44:23.691Z,97405.14
2019-06-07T17:48:28.591Z,97478.72
2019-06-07T17:52:33.509Z,97493.79
2019-06-07T17:56:38.399Z,97495.88
2019-06-07T18:00:51.176Z,97534.34
2019-06-07T18:04:57.171Z,97520.55
2019-06-07T18:09:04.581Z,97526.88
2019-06-07T18:13:10.453Z,97518.77
2019-06-07T18:17:15.355Z,97563.54
2019-06-07T18:21:20.244Z,97555.92
2019-06-07T18:25:25.146Z,97548.69
2019-06-07T18:29:30.046Z,97593.19
2019-06-07T18:33:34.944Z,97610.51
2019-06-07T18:37:39.846Z,97619.25
2019-06-07T18:41:44.740Z,97674.53
2019-06-07T18:45:49.650Z,97655.50
2019-06-07T18:49:57.708Z,97672.45
2019-06-07T18:54:03.009Z,97688.66
2019-06-07T18:58:07.905Z,97655.03
2019-06-07T19:02:12.809Z,97652.73
2019-06-07T19:06:17.713Z,97623.89
2019-06-07T19:10:23.223Z,97674.97
2019-06-07T19:14:36.687Z,97645.41
2019-06-07T19:18:34.726Z,97615.45
2019-06-07T19:22:39.828Z,97661.23
2019-06-07T19:26:44.810Z,97706.42
2019-06-07T19:30:50.801Z,97725.36
2019-06-07T19:34:55.677Z,97712.08
2019-06-07T19:39:02.008Z,97691.63
2019-06-07T19:43:08.511Z,97700.80
2019-06-07T19:47:13.420Z,97682.71
2019-06-07T19:51:20.386Z,97704.66
2019-06-07T19:55:24.912Z,97707.56
2019-06-07T19:59:29.817Z,97737.90
2019-06-07T20:03:34.723Z,97761.08
2019-06-07T20:07:39.612Z,97781.23
2019-06-07T20:11:44.537Z,97769.90
2019-06-07T20:15:49.435Z,97783.58
2019-06-07T20:19:54.338Z,97798.37
2019-06-07T20:24:01.652Z,97776.97
2019-06-07T20:28:05.890Z,97758.73
2019-06-07T20:32:10.788Z,97751.98
2019-06-07T20:36:15.684Z,97740.06
2019-06-07T20:40:24.612Z,97721.59
2019-06-07T20:44:27.178Z,97722.19
2019-06-07T20:48:32.077Z,97709.84
2019-06-07T20:52:37.061Z,97720.95
2019-06-07T20:56:41.943Z,97745.81
2019-06-07T21:00:46.846Z,97793.77
2019-06-07T21:04:51.732Z,97818.64
2019-06-07T21:08:56.640Z,97831.36
2019-06-07T21:13:01.865Z,97846.81
2019-06-07T21:17:08.163Z,97842.28
2019-06-07T21:21:13.202Z,97849.06
2019-06-07T21:25:18.101Z,97862.61
2019-06-07T21:29:23.011Z,97843.38
2019-06-07T21:33:27.936Z,97853.66
2019-06-07T21:37:32.830Z,97859.95
2019-06-07T21:41:37.736Z,97877.36
2019-06-07T21:45:42.896Z,97890.45
2019-06-07T21:49:47.812Z,97892.39
2019-06-07T21:53:53.787Z,97883.98
2019-06-07T21:57:58.676Z,97864.20
2019-06-07T22:02:03.645Z,97843.27
2019-06-07T22:06:09.713Z,97839.47
2019-06-07T22:10:14.770Z,97839.47
2019-06-07T22:14:19.675Z,97837.75
2019-06-07T22:18:24.572Z,97824.80
2019-06-07T22:22:29.486Z,97846.00
2019-06-07T22:26:34.407Z,97846.00
2019-06-07T22:30:39.286Z,97835.14
2019-06-07T22:34:44.189Z,97809.94
2019-06-07T22:38:49.090Z,97826.28
2019-06-07T22:42:53.991Z,97837.36
2019-06-07T22:46:58.890Z,97841.31
2019-06-07T22:51:07.705Z,97830.55
2019-06-07T22:55:13.845Z,97830.55
2019-06-07T22:59:20.476Z,97829.02
2019-06-07T23:03:25.601Z,97835.87
2019-06-07T23:07:30.501Z,97855.34
2019-06-07T23:11:35.386Z,97860.69
2019-06-07T23:15:40.281Z,97876.95
2019-06-07T23:19:45.181Z,97876.95
2019-06-07T23:23:50.079Z,97898.95
2019-06-07T23:27:54.990Z,97886.25
2019-06-07T23:31:59.862Z,97884.89
2019-06-07T23:36:04.770Z,97884.89
2019-06-07T23:40:11.191Z,97888.78
2019-06-07T23:44:17.146Z,97895.93
2019-06-07T23:48:22.154Z,97889.40
2019-06-07T23:52:27.048Z,97866.03
2019-06-07T23:56:31.955Z,97883.25
